Time;durP1;ratioP1;P1;durP2;ratioP2;P2;SDS_P1;SDS_P2;PMS_P1;PMS_P2;Temp;Humidity;BMP_temperature;BMP_pressure;BME280_temperature;BME280_humidity;BME280_pressure;Samples;Min_cycle;Max_cycle;Signal;HPM_P1;HPM_P2
2022/07/03 00:00:10;;;;;;;1.83;1.67;;;;;;;17.26;83.43;96173.41;5077633;28;20030;-61
2022/07/03 00:02:35;;;;;;;1.75;1.52;;;;;;;17.27;82.98;96181.25;5082099;28;20105;-61
2022/07/03 00:05:00;;;;;;;1.58;1.48;;;;;;;17.25;83.66;96183.25;5085835;28;20024;-61
2022/07/03 00:07:26;;;;;;;2.13;2.03;;;;;;;17.25;82.95;96179.75;5082948;28;20036;-61
2022/07/03 00:09:51;;;;;;;2.92;1.60;;;;;;;17.20;83.52;96174.94;5087753;28;20390;-61
2022/07/03 00:12:17;;;;;;;2.20;1.80;;;;;;;17.16;86.18;96176.28;5076317;28;20043;-61
2022/07/03 00:14:42;;;;;;;3.28;1.77;;;;;;;17.10;85.20;96176.97;5081942;28;20487;-61
2022/07/03 00:17:07;;;;;;;1.40;1.40;;;;;;;17.07;84.70;96177.31;5094487;28;20107;-61
2022/07/03 00:19:33;;;;;;;1.80;1.70;;;;;;;17.08;84.89;96176.31;5090233;28;20642;-61
2022/07/03 00:22:03;;;;;;;2.70;1.40;;;;;;;17.06;84.67;96173.81;5078746;28;20117;-61
2022/07/03 00:24:46;;;;;;;2.08;1.95;;;;;;;17.01;86.01;96182.28;5084751;28;20035;-61
2022/07/03 00:27:14;;;;;;;2.92;1.63;;;;;;;16.98;85.27;96166.69;5084246;28;20563;-61
2022/07/03 00:29:43;;;;;;;2.05;1.70;;;;;;;16.92;85.93;96170.00;5088029;28;20020;-60
2022/07/03 00:32:11;;;;;;;1.83;1.73;;;;;;;16.85;86.10;96177.81;5081677;28;20031;-61
2022/07/03 00:34:41;;;;;;;1.52;1.50;;;;;;;16.80;85.82;96184.63;5071402;28;20525;-61
2022/07/03 00:37:09;;;;;;;1.42;1.33;;;;;;;16.78;86.19;96176.84;5084366;28;20024;-61
2022/07/03 00:39:38;;;;;;;2.67;1.80;;;;;;;16.82;85.39;96188.78;5084990;28;20024;-61
2022/07/03 00:42:05;;;;;;;1.80;1.70;;;;;;;16.86;85.83;96192.78;5084365;28;20027;-61
2022/07/03 00:44:34;;;;;;;2.15;1.70;;;;;;;16.85;85.99;96188.47;5079645;28;20035;-61
2022/07/03 00:47:02;;;;;;;7.53;1.73;;;;;;;16.87;85.81;96180.31;5084834;28;20178;-61
2022/07/03 00:49:29;;;;;;;2.45;1.77;;;;;;;16.86;85.91;96194.63;5089308;28;20059;-61
2022/07/03 00:51:56;;;;;;;2.97;1.80;;;;;;;16.81;85.97;96196.97;5080826;28;20159;-61
2022/07/03 00:54:23;;;;;;;1.90;1.80;;;;;;;16.79;86.01;96188.28;5097028;28;20028;-61
2022/07/03 00:56:54;;;;;;;1.80;1.70;;;;;;;16.79;86.03;96183.81;5083506;28;20051;-61
2022/07/03 00:59:20;;;;;;;1.73;1.63;;;;;;;16.71;86.00;96183.84;5087190;28;20109;-61
2022/07/03 01:01:50;;;;;;;2.42;1.85;;;;;;;16.68;86.01;96179.69;5091994;28;20052;-62
2022/07/03 01:04:42;;;;;;;3.65;1.75;;;;;;;16.67;86.52;96180.69;5073892;28;20097;-61
2022/07/03 01:07:38;;;;;;;2.15;1.70;;;;;;;16.66;86.96;96178.19;5085587;28;20024;-61
2022/07/03 01:10:12;;;;;;;1.75;1.65;;;;;;;16.67;86.12;96185.16;5079979;28;20027;-60
2022/07/03 01:12:55;;;;;;;1.63;1.52;;;;;;;16.64;87.29;96180.19;5084349;28;20028;-60
2022/07/03 01:15:35;;;;;;;2.38;1.75;;;;;;;16.66;85.57;96178.19;5081918;28;20521;-60
2022/07/03 01:18:22;;;;;;;1.95;1.85;;;;;;;16.61;87.27;96179.53;5093490;28;20432;-61
2022/07/03 01:20:54;;;;;;;3.22;1.92;;;;;;;16.59;87.28;96183.38;5085813;28;20024;-61
2022/07/03 01:23:30;;;;;;;8.07;1.92;;;;;;;16.60;87.36;96182.38;5086249;28;20024;-61
2022/07/03 01:25:59;;;;;;;1.73;1.63;;;;;;;16.56;86.64;96176.53;5087453;28;20078;-60
2022/07/03 01:28:24;;;;;;;2.70;1.67;;;;;;;16.54;86.56;96178.53;5091954;28;20024;-60
2022/07/03 01:30:53;;;;;;;1.48;1.40;;;;;;;16.54;86.30;96175.03;5082057;28;20036;-61
2022/07/03 01:33:21;;;;;;;1.70;1.60;;;;;;;16.53;86.32;96179.53;5082250;28;20479;-61
2022/07/03 01:36:03;;;;;;;2.25;1.60;;;;;;;16.53;86.10;96179.53;5091256;28;20031;-61
2022/07/03 01:38:30;;;;;;;1.73;1.70;;;;;;;16.47;87.85;96177.56;5083081;28;20112;-60
2022/07/03 01:40:56;;;;;;;1.73;1.63;;;;;;;16.44;86.72;96173.41;5086386;28;20050;-61
2022/07/03 01:43:33;;;;;;;3.80;1.50;;;;;;;16.55;86.34;96166.06;5092660;28;20513;-61
2022/07/03 01:46:01;;;;;;;2.13;1.95;;;;;;;16.45;87.13;96171.56;5083962;28;20154;-61
2022/07/03 01:48:28;;;;;;;3.83;1.60;;;;;;;16.41;87.08;96170.22;5086987;28;20039;-61
2022/07/03 01:50:55;;;;;;;2.35;1.90;;;;;;;16.35;86.89;96166.41;5082921;28;20028;-61
2022/07/03 01:53:24;;;;;;;4.70;1.83;;;;;;;16.43;86.76;96168.25;5075793;28;20025;-60
2022/07/03 01:55:50;;;;;;;3.60;1.92;;;;;;;16.37;87.00;96167.09;5082108;28;20035;-61
2022/07/03 01:58:15;;;;;;;2.30;1.90;;;;;;;16.32;87.09;96166.75;5090850;28;20020;-61
2022/07/03 02:00:50;;;;;;;2.25;1.75;;;;;;;16.26;87.36;96165.59;5089869;28;20111;-61
2022/07/03 02:03:31;;;;;;;4.47;1.70;;;;;;;16.30;87.40;96161.63;5083295;28;20108;-61
2022/07/03 02:06:02;;;;;;;3.95;1.75;;;;;;;16.36;86.57;96167.25;5090144;28;20042;-60
2022/07/03 02:08:36;;;;;;;2.72;1.90;;;;;;;16.36;86.86;96161.94;5085279;28;20044;-60
2022/07/03 02:11:16;;;;;;;1.95;1.85;;;;;;;16.37;86.34;96164.44;5089752;28;20039;-61
2022/07/03 02:13:59;;;;;;;3.90;1.50;;;;;;;16.35;86.29;96161.09;5084273;28;20028;-60
2022/07/03 02:16:26;;;;;;;2.25;1.73;;;;;;;16.33;86.45;96163.94;5090399;28;20032;-61
2022/07/03 02:19:02;;;;;;;1.60;1.50;;;;;;;16.23;87.30;96160.59;5087834;28;20483;-61
2022/07/03 02:21:29;;;;;;;1.67;1.58;;;;;;;16.15;88.28;96165.91;5060809;28;20099;-61
2022/07/03 02:24:20;;;;;;;4.20;2.00;;;;;;;16.05;89.06;96171.41;5080287;28;20028;-61
2022/07/03 02:26:54;;;;;;;3.67;1.92;;;;;;;16.08;88.08;96170.25;5080292;28;20023;-60
2022/07/03 02:29:25;;;;;;;2.15;1.50;;;;;;;16.14;87.79;96166.91;5079984;28;20494;-60
2022/07/03 02:31:59;;;;;;;4.30;1.80;;;;;;;16.21;86.87;96162.59;5090038;28;20024;-61
2022/07/03 02:34:27;;;;;;;1.77;1.67;;;;;;;16.24;87.47;96158.78;5092037;28;20026;-60
2022/07/03 02:36:57;;;;;;;1.90;1.80;;;;;;;16.22;86.51;96155.47;5086979;28;20115;-61
2022/07/03 02:39:44;;;;;;;2.92;1.60;;;;;;;16.17;85.84;96159.47;5082313;28;20035;-61
2022/07/03 02:42:30;;;;;;;1.70;1.70;;;;;;;16.14;86.64;96157.13;5081562;28;20032;-60
2022/07/03 02:45:01;;;;;;;2.08;1.98;;;;;;;16.15;86.02;96165.91;5089219;28;20028;-61
2022/07/03 02:47:32;;;;;;;2.05;1.90;;;;;;;16.20;85.71;96152.97;5087234;28;20039;-61
2022/07/03 02:50:06;;;;;;;1.80;1.70;;;;;;;16.23;85.47;96157.94;5088548;28;20483;-61
2022/07/03 02:52:43;;;;;;;2.08;1.98;;;;;;;16.23;86.01;96160.59;5074248;28;20036;-61
2022/07/03 02:55:13;;;;;;;3.00;1.90;;;;;;;16.24;85.82;96154.28;5074908;28;20508;-60
2022/07/03 02:57:41;;;;;;;1.85;1.75;;;;;;;16.21;86.11;96151.97;5081828;28;20040;-60
2022/07/03 03:00:12;;;;;;;1.92;1.73;;;;;;;16.18;84.87;96161.13;5081632;28;20032;-60
2022/07/03 03:02:55;;;;;;;2.03;1.90;;;;;;;16.16;84.88;96170.25;5100393;28;20077;-60
2022/07/03 03:05:27;;;;;;;4.38;1.70;;;;;;;16.14;85.20;96161.59;5082207;28;20024;-60
2022/07/03 03:08:01;;;;;;;5.43;1.90;;;;;;;16.15;85.83;96157.97;5090548;28;20023;-61
2022/07/03 03:10:26;;;;;;;10.77;1.85;;;;;;;16.15;86.32;96161.47;5089987;28;20036;-61
2022/07/03 03:13:04;;;;;;;2.13;1.90;;;;;;;16.13;86.13;96158.09;5086198;28;20032;-62
2022/07/03 03:15:31;;;;;;;5.65;1.90;;;;;;;16.13;86.03;96171.38;5086020;28;20032;-61
2022/07/03 03:18:05;;;;;;;4.72;1.80;;;;;;;16.10;86.25;96163.75;5087248;28;20020;-61
2022/07/03 03:20:32;;;;;;;4.18;1.73;;;;;;;16.13;85.79;96163.41;5080508;28;20115;-61
2022/07/03 03:23:17;;;;;;;4.38;2.00;;;;;;;16.09;85.68;96164.75;5090511;28;20036;-61
2022/07/03 03:25:43;;;;;;;2.92;2.00;;;;;;;16.06;87.20;96162.44;5081125;28;20115;-61
2022/07/03 03:28:08;;;;;;;2.08;1.88;;;;;;;16.06;86.91;96157.13;5089688;28;20064;-61
2022/07/03 03:30:35;;;;;;;1.80;1.70;;;;;;;16.05;86.98;96160.78;5089936;28;20439;-61
2022/07/03 03:33:01;;;;;;;3.05;1.70;;;;;;;16.00;87.26;96163.91;5088545;28;20021;-61
2022/07/03 03:35:26;;;;;;;1.80;1.70;;;;;;;15.98;87.49;96160.59;5076914;28;20040;-61
2022/07/03 03:37:52;;;;;;;1.92;1.65;;;;;;;16.00;86.31;96161.25;5093313;28;20031;-61
2022/07/03 03:40:17;;;;;;;1.85;1.75;;;;;;;16.03;86.34;96157.44;5098774;28;20043;-61
2022/07/03 03:42:43;;;;;;;1.83;1.73;;;;;;;15.96;86.52;96159.94;5092446;28;20023;-61
2022/07/03 03:45:09;;;;;;;1.75;1.55;;;;;;;15.89;86.53;96157.09;5097540;28;20501;-61
2022/07/03 03:47:35;;;;;;;1.80;1.70;;;;;;;15.84;87.13;96154.06;5096390;28;20077;-61
2022/07/03 03:50:01;;;;;;;1.98;1.80;;;;;;;15.73;88.78;96144.59;5110268;28;20402;-60
2022/07/03 03:52:29;;;;;;;1.85;1.75;;;;;;;15.65;88.82;96139.28;5094056;28;20028;-61
2022/07/03 03:54:54;;;;;;;1.90;1.80;;;;;;;15.56;88.88;96145.56;5088033;28;20054;-61
2022/07/03 03:57:24;;;;;;;5.22;2.10;;;;;;;15.44;90.48;96148.53;5105603;28;20118;-61
2022/07/03 03:59:50;;;;;;;2.08;1.98;;;;;;;15.39;90.82;96147.34;5110446;28;20027;-61
2022/07/03 04:02:16;;;;;;;4.00;2.20;;;;;;;15.37;90.99;96152.81;5110395;28;20031;-61
2022/07/03 04:04:42;;;;;;;1.73;1.63;;;;;;;15.43;89.88;96156.63;5108309;28;20020;-60
2022/07/03 04:07:07;;;;;;;2.65;1.90;;;;;;;15.52;89.29;96166.28;5089072;28;20039;-61
2022/07/03 04:09:33;;;;;;;1.80;1.70;;;;;;;15.58;88.88;96164.78;5089436;28;20034;-61
2022/07/03 04:11:59;;;;;;;1.80;1.70;;;;;;;15.56;89.00;96161.47;5089566;28;20024;-61
2022/07/03 04:14:24;;;;;;;2.00;1.88;;;;;;;15.57;89.11;96165.78;5089410;28;20024;-61
2022/07/03 04:16:50;;;;;;;4.18;1.85;;;;;;;15.55;89.13;96163.31;5071667;28;20024;-61
2022/07/03 04:19:15;;;;;;;7.25;1.70;;;;;;;15.55;89.56;96167.78;5088779;28;20082;-61
2022/07/03 04:21:41;;;;;;;2.15;1.73;;;;;;;15.56;89.29;96166.78;5089431;28;20028;-61
2022/07/03 04:24:06;;;;;;;1.90;1.80;;;;;;;15.59;89.40;96163.81;5089295;28;20032;-61
2022/07/03 04:26:32;;;;;;;2.15;1.90;;;;;;;15.65;90.14;96157.03;5089123;28;20621;-61
2022/07/03 04:28:57;;;;;;;3.15;1.90;;;;;;;15.74;88.96;96158.72;5089435;28;20035;-61
2022/07/03 04:31:22;;;;;;;2.10;1.90;;;;;;;15.75;88.85;96161.19;5089185;28;20028;-61
2022/07/03 04:33:48;;;;;;;1.70;1.60;;;;;;;15.76;88.84;96157.53;5089755;28;20020;-61
2022/07/03 04:36:14;;;;;;;2.60;1.67;;;;;;;15.80;88.32;96157.22;5088955;28;20039;-61
2022/07/03 04:38:39;;;;;;;1.65;1.55;;;;;;;15.80;88.01;96152.75;5104947;28;20490;-61
2022/07/03 04:41:05;;;;;;;1.90;1.80;;;;;;;15.81;88.01;96153.59;5109836;28;20059;-61
2022/07/03 04:43:30;;;;;;;1.88;1.77;;;;;;;15.83;87.51;96147.09;5095717;28;20024;-61
2022/07/03 04:45:56;;;;;;;3.78;1.65;;;;;;;15.80;87.84;96150.09;5099197;28;20397;-61
2022/07/03 04:48:21;;;;;;;2.03;1.83;;;;;;;15.76;87.98;96151.41;5109634;28;20028;-61
2022/07/03 04:50:47;;;;;;;2.20;2.05;;;;;;;15.65;89.45;96149.91;5104494;28;20409;-61
2022/07/03 04:53:12;;;;;;;6.20;2.10;;;;;;;15.57;89.79;96144.56;5094942;28;20038;-61
2022/07/03 04:55:37;;;;;;;1.73;1.63;;;;;;;15.54;89.88;96152.84;5088629;28;20028;-61
2022/07/03 04:58:03;;;;;;;2.10;1.90;;;;;;;15.60;89.31;96152.22;5089016;28;20009;-61
2022/07/03 05:00:28;;;;;;;1.83;1.73;;;;;;;15.67;88.52;96153.22;5086023;28;20028;-61
2022/07/03 05:02:54;;;;;;;3.53;1.80;;;;;;;15.73;88.01;96149.91;5076275;28;20023;-61
2022/07/03 05:05:19;;;;;;;3.35;1.88;;;;;;;15.74;87.77;96154.22;5080821;28;20028;-61
2022/07/03 05:07:45;;;;;;;2.00;1.90;;;;;;;15.80;87.24;96151.91;5085409;28;20026;-61
2022/07/03 05:10:10;;;;;;;3.30;1.67;;;;;;;15.86;88.34;96149.44;5081338;28;20459;-61
2022/07/03 05:12:36;;;;;;;1.67;1.58;;;;;;;15.97;87.31;96156.28;5068296;28;20028;-61
2022/07/03 05:15:01;;;;;;;2.75;1.60;;;;;;;16.10;86.93;96157.63;5089000;28;20016;-61
2022/07/03 05:17:27;;;;;;;2.03;1.88;;;;;;;16.21;86.48;96148.50;5083530;28;20494;-61
2022/07/03 05:20:23;;;;;;;1.70;1.70;;;;;;;16.33;86.27;96158.63;5088343;28;20558;-61
2022/07/03 05:22:38;;;;;;;1.92;1.80;;;;;;;16.48;84.98;96147.34;5082302;28;20024;-61
2022/07/03 05:25:03;;;;;;;2.67;1.92;;;;;;;16.60;84.11;96145.97;5088831;28;20699;-61
2022/07/03 05:27:29;;;;;;;3.25;1.65;;;;;;;16.71;83.27;96143.97;5087094;28;20111;-61
2022/07/03 05:29:54;;;;;;;1.65;1.55;;;;;;;16.84;81.70;96140.78;5082366;28;20027;-61
2022/07/03 05:32:19;;;;;;;1.70;1.70;;;;;;;16.94;80.68;96138.75;5076208;28;20029;-61
2022/07/03 05:34:45;;;;;;;1.80;1.70;;;;;;;17.10;80.89;96140.53;5092353;28;20553;-61
2022/07/03 05:37:10;;;;;;;1.70;1.60;;;;;;;17.25;81.81;96129.19;5093022;28;20474;-61
2022/07/03 05:39:37;;;;;;;1.83;1.63;;;;;;;17.37;81.90;96134.94;5101784;28;20030;-61
2022/07/03 05:42:03;;;;;;;3.47;2.40;;;;;;;17.49;81.56;96143.38;5105435;28;20513;-61
2022/07/03 05:44:29;;;;;;;2.30;1.70;;;;;;;17.64;81.28;96132.81;5112836;28;20024;-61
2022/07/03 05:46:54;;;;;;;3.70;2.00;;;;;;;17.80;80.62;96121.25;5112682;28;20027;-61
2022/07/03 05:49:19;;;;;;;1.70;1.60;;;;;;;17.95;80.73;96127.44;5112667;28;20028;-61
2022/07/03 05:51:45;;;;;;;2.05;1.50;;;;;;;18.02;80.27;96127.59;5106368;28;20543;-61
2022/07/03 05:54:10;;;;;;;2.17;1.70;;;;;;;18.10;80.42;96134.69;5090405;28;20035;-61
2022/07/03 05:56:35;;;;;;;2.00;1.70;;;;;;;18.20;80.50;96131.78;5105694;28;20506;-61
2022/07/03 05:59:01;;;;;;;2.75;1.70;;;;;;;18.37;79.94;96135.16;5091691;28;20032;-61
2022/07/03 06:01:26;;;;;;;2.88;1.52;;;;;;;18.61;78.91;96131.44;5083516;28;20028;-61
2022/07/03 06:03:51;;;;;;;3.38;1.75;;;;;;;18.94;78.84;96127.59;5099125;28;20055;-61
2022/07/03 06:06:17;;;;;;;1.70;1.60;;;;;;;19.16;76.64;96124.03;5070874;28;20441;-60
2022/07/03 06:08:42;;;;;;;1.67;1.58;;;;;;;19.39;75.56;96125.75;5085608;28;20099;-62
2022/07/03 06:11:08;;;;;;;2.25;1.63;;;;;;;19.55;73.50;96135.38;5086980;28;20047;-61
2022/07/03 06:13:34;;;;;;;1.70;1.60;;;;;;;19.60;74.05;96137.50;5075864;28;20064;-61
2022/07/03 06:15:59;;;;;;;2.00;1.80;;;;;;;19.78;73.53;96133.53;5079737;28;20077;-62
2022/07/03 06:18:25;;;;;;;3.35;1.70;;;;;;;20.07;72.60;96134.50;5077663;28;20024;-61
2022/07/03 06:20:50;;;;;;;1.80;1.70;;;;;;;20.31;72.29;96126.09;5084743;28;20047;-62
2022/07/03 06:23:16;;;;;;;2.03;1.35;;;;;;;20.50;70.98;96118.41;5097315;28;20052;-62
2022/07/03 06:25:41;;;;;;;1.65;1.55;;;;;;;20.65;70.90;96114.81;5105545;28;20023;-62
2022/07/03 06:28:06;;;;;;;2.30;1.58;;;;;;;20.74;69.88;96116.31;5107103;28;20115;-62
2022/07/03 06:30:32;;;;;;;1.60;1.50;;;;;;;20.77;68.66;96115.94;5109366;28;20491;-62
2022/07/03 06:32:57;;;;;;;1.65;1.55;;;;;;;20.92;69.24;96109.66;5097062;28;20548;-62
2022/07/03 06:35:22;;;;;;;1.40;1.30;;;;;;;21.21;70.12;96110.44;5091561;28;20075;-62
2022/07/03 06:37:48;;;;;;;3.00;1.50;;;;;;;21.30;68.25;96107.38;5095771;28;20027;-60
2022/07/03 06:40:13;;;;;;;1.80;1.70;;;;;;;21.35;68.93;96116.66;5107707;28;20023;-59
2022/07/03 06:42:39;;;;;;;1.48;1.30;;;;;;;21.52;68.83;96114.44;5089171;28;20023;-61
2022/07/03 06:45:05;;;;;;;1.30;1.30;;;;;;;21.90;64.02;96111.28;5091005;28;20024;-62
2022/07/03 06:47:30;;;;;;;8.50;1.52;;;;;;;22.35;61.21;96108.03;5078468;28;20027;-61
2022/07/03 06:49:55;;;;;;;2.85;1.40;;;;;;;22.69;58.78;96111.53;5089035;28;20016;-61
2022/07/03 06:52:21;;;;;;;1.55;1.45;;;;;;;22.86;57.14;96103.88;5091814;28;20050;-62
2022/07/03 06:54:46;;;;;;;1.42;1.33;;;;;;;23.07;56.01;96107.34;5091509;28;20028;-62
2022/07/03 06:57:13;;;;;;;1.70;1.20;;;;;;;23.36;55.39;96109.75;5090061;28;20567;-62
2022/07/03 06:59:38;;;;;;;2.88;1.45;;;;;;;23.42;53.33;96114.25;5077698;28;20487;-62
2022/07/03 07:02:04;;;;;;;1.65;1.40;;;;;;;23.66;51.98;96110.03;5091538;28;20031;-62
2022/07/03 07:04:29;;;;;;;1.30;1.20;;;;;;;23.65;54.23;96104.84;5091018;28;20498;-61
2022/07/03 07:06:55;;;;;;;2.40;1.63;;;;;;;23.88;51.71;96107.00;5090966;28;20069;-62
2022/07/03 07:09:20;;;;;;;3.92;1.27;;;;;;;23.50;52.52;96110.50;5091532;28;20024;-62
2022/07/03 07:11:47;;;;;;;3.95;1.40;;;;;;;23.57;51.71;96109.44;5090873;28;20044;-61
2022/07/03 07:14:12;;;;;;;1.52;1.30;;;;;;;23.21;54.72;96112.66;5086010;28;20036;-61
2022/07/03 07:16:37;;;;;;;2.17;1.63;;;;;;;22.93;54.13;96114.59;5090796;28;20016;-61
2022/07/03 07:19:03;;;;;;;1.60;1.50;;;;;;;22.74;53.97;96108.25;5091202;28;20409;-62
2022/07/03 07:21:28;;;;;;;1.60;1.50;;;;;;;22.43;54.97;96112.34;5090809;28;20077;-62
2022/07/03 07:23:54;;;;;;;1.67;1.58;;;;;;;22.79;53.54;96115.69;5091063;28;20020;-62
2022/07/03 07:26:20;;;;;;;2.40;1.65;;;;;;;23.07;54.10;96114.56;5090242;28;20035;-61
2022/07/03 07:28:46;;;;;;;1.58;1.48;;;;;;;23.17;54.41;96107.72;5090624;28;20020;-62
2022/07/03 07:31:11;;;;;;;1.60;1.60;;;;;;;23.15;53.39;96109.81;5090770;28;20491;-61
2022/07/03 07:33:36;;;;;;;2.35;1.70;;;;;;;23.11;54.66;96111.28;5090309;28;20028;-61
2022/07/03 07:36:02;;;;;;;3.72;1.60;;;;;;;23.61;53.66;96123.28;5090851;28;20020;-62
2022/07/03 07:38:27;;;;;;;2.35;1.52;;;;;;;24.27;50.85;96121.25;5085360;28;20036;-62
2022/07/03 07:40:53;;;;;;;2.53;1.60;;;;;;;24.74;50.08;96120.03;5101478;28;20031;-62
2022/07/03 07:43:18;;;;;;;3.30;1.80;;;;;;;24.99;50.04;96116.50;5111056;28;20024;-61
2022/07/03 07:45:44;;;;;;;1.60;1.50;;;;;;;25.46;46.91;96116.00;5110807;28;20030;-62
2022/07/03 07:48:09;;;;;;;2.20;1.70;;;;;;;25.72;47.45;96114.03;5111035;28;20042;-62
2022/07/03 07:50:34;;;;;;;2.75;2.08;;;;;;;26.03;43.70;96115.66;5110835;28;20479;-62
2022/07/03 07:53:00;;;;;;;1.80;1.65;;;;;;;26.22;43.33;96104.00;5111023;28;20024;-62
2022/07/03 07:55:25;;;;;;;1.52;1.40;;;;;;;26.31;42.61;96105.31;5110798;28;20179;-62
2022/07/03 07:57:51;;;;;;;1.27;1.27;;;;;;;26.38;42.56;96095.22;5110584;28;20031;-62
2022/07/03 08:00:18;;;;;;;2.35;1.50;;;;;;;26.48;41.24;96097.34;5108887;28;20032;-62
2022/07/03 08:05:38;;;;;;;1.85;1.58;;;;;;;26.90;41.51;96096.44;5093257;28;20035;-62
2022/07/03 08:08:08;;;;;;;1.63;1.50;;;;;;;26.99;41.04;96086.09;5089708;28;20506;-62
2022/07/03 08:10:35;;;;;;;1.67;1.58;;;;;;;27.30;40.37;96090.25;5089890;28;20027;-62
2022/07/03 08:13:00;;;;;;;2.53;1.58;;;;;;;27.18;40.22;96086.75;5089843;28;20020;-62
2022/07/03 08:15:26;;;;;;;1.30;1.30;;;;;;;27.21;39.18;96085.47;5088994;28;20035;-62
2022/07/03 08:17:51;;;;;;;1.50;1.40;;;;;;;27.34;39.30;96082.50;5089918;28;20024;-61
2022/07/03 08:20:16;;;;;;;2.15;1.60;;;;;;;27.42;38.72;96081.31;5091488;28;20024;-61
2022/07/03 08:22:42;;;;;;;1.67;1.20;;;;;;;27.53;38.86;96076.97;5095400;28;20023;-63
2022/07/03 08:25:07;;;;;;;1.27;1.17;;;;;;;27.44;39.22;96071.88;5103467;28;20110;-63
2022/07/03 08:27:33;;;;;;;1.60;1.50;;;;;;;28.03;38.93;96076.25;5095414;28;20482;-61
2022/07/03 08:29:58;;;;;;;1.48;1.33;;;;;;;27.69;37.67;96070.75;5102132;28;20383;-63
2022/07/03 08:32:23;;;;;;;1.60;1.50;;;;;;;27.73;39.07;96071.09;5103650;28;20031;-65
2022/07/03 08:34:49;;;;;;;1.38;1.38;;;;;;;27.78;39.71;96062.28;5088930;28;20043;-64
2022/07/03 08:37:14;;;;;;;1.60;1.40;;;;;;;28.05;39.53;96065.16;5087331;28;20088;-63
2022/07/03 08:39:39;;;;;;;1.40;1.30;;;;;;;28.26;39.54;96060.94;5089298;28;20016;-64
2022/07/03 08:42:07;;;;;;;1.33;1.25;;;;;;;28.50;40.05;96057.22;5089800;28;20467;-64
2022/07/03 08:44:35;;;;;;;1.40;1.30;;;;;;;28.30;39.21;96056.69;5089896;28;20028;-65
2022/07/03 08:47:02;;;;;;;2.17;1.75;;;;;;;28.67;38.49;96058.03;5089987;28;20038;-64
2022/07/03 08:49:28;;;;;;;1.65;1.35;;;;;;;28.90;37.66;96050.78;5089564;28;20024;-65
2022/07/03 08:51:55;;;;;;;2.45;1.23;;;;;;;28.97;36.67;96053.31;5089844;28;20028;-65
2022/07/03 08:54:20;;;;;;;1.40;1.30;;;;;;;29.16;38.56;96043.00;5089142;28;20082;-66
2022/07/03 08:56:47;;;;;;;1.75;1.65;;;;;;;29.40;37.89;96043.56;5089611;28;20052;-65
2022/07/03 08:59:13;;;;;;;1.50;1.40;;;;;;;29.45;37.50;96040.13;5087880;28;20090;-67
2022/07/03 09:01:41;;;;;;;1.00;1.00;;;;;;;29.55;38.06;96036.69;5096136;28;20028;-65
2022/07/03 09:04:12;;;;;;;1.60;1.48;;;;;;;29.89;38.29;96036.47;5089721;28;20048;-65
2022/07/03 09:06:39;;;;;;;1.10;1.10;;;;;;;30.11;39.60;96031.00;5089336;28;20020;-64
2022/07/03 09:09:06;;;;;;;1.13;1.13;;;;;;;30.39;38.62;96028.22;5096915;28;20027;-64
2022/07/03 09:11:32;;;;;;;1.35;1.25;;;;;;;30.46;37.58;96036.97;5102002;28;20337;-63
2022/07/03 09:13:57;;;;;;;1.23;1.17;;;;;;;30.79;36.97;96037.72;5099221;28;20039;-63
2022/07/03 09:16:23;;;;;;;1.05;1.05;;;;;;;30.99;35.87;96036.19;5108320;28;20034;-63
2022/07/03 09:18:48;;;;;;;1.35;1.30;;;;;;;30.83;36.05;96024.44;5100866;28;20016;-62
2022/07/03 09:21:15;;;;;;;1.02;0.95;;;;;;;31.07;34.81;96030.28;5109248;28;20023;-63
2022/07/03 09:23:43;;;;;;;3.28;1.13;;;;;;;30.93;36.06;96018.25;5108270;28;20031;-63
2022/07/03 09:26:13;;;;;;;1.67;1.58;;;;;;;30.99;35.28;96025.34;5108696;28;20027;-63
2022/07/03 09:28:53;;;;;;;1.35;1.25;;;;;;;31.13;36.15;96022.94;5108674;28;20026;-63
2022/07/03 09:31:22;;;;;;;1.35;1.25;;;;;;;31.40;35.64;96014.63;5109005;28;20055;-63
2022/07/03 09:34:08;;;;;;;2.10;1.17;;;;;;;31.72;34.62;96019.06;5105004;28;20106;-63
2022/07/03 09:36:43;;;;;;;3.28;1.50;;;;;;;32.09;34.14;96019.13;5103740;28;20059;-63
2022/07/03 09:39:21;;;;;;;1.55;1.40;;;;;;;32.10;33.84;96007.13;5106973;28;20144;-63
2022/07/03 09:42:03;;;;;;;1.00;1.00;;;;;;;32.09;34.20;96008.22;5107828;28;20023;-63
2022/07/03 09:44:40;;;;;;;1.35;1.20;;;;;;;32.25;33.84;95998.13;5094919;28;20031;-64
2022/07/03 09:47:20;;;;;;;1.10;1.10;;;;;;;32.61;32.24;95991.84;5097017;28;20065;-63
2022/07/03 09:49:54;;;;;;;1.10;1.10;;;;;;;32.39;33.02;95982.91;5092884;28;20050;-63
2022/07/03 09:52:36;;;;;;;;;;;;;;;32.56;33.79;95992.69;5087258;28;20107;-61
2022/07/03 09:55:13;;;;;;;1.20;1.10;;;;;;;32.52;33.41;95989.69;5092745;28;19916;-63
2022/07/03 09:57:59;;;;;;;1.05;0.95;;;;;;;33.13;33.03;95978.88;5092648;28;20071;-63
2022/07/03 10:00:27;;;;;;;2.15;1.33;;;;;;;33.14;31.85;95980.50;5072275;28;20035;-63
2022/07/03 10:03:03;;;;;;;1.30;1.00;;;;;;;32.96;32.97;95985.50;5085071;28;20032;-63
2022/07/03 10:05:35;;;;;;;1.05;0.95;;;;;;;33.06;30.97;95986.53;5088746;28;20524;-63
2022/07/03 10:08:08;;;;;;;1.95;1.23;;;;;;;32.73;32.44;95976.00;5093634;28;20042;-63
2022/07/03 10:10:35;;;;;;;1.10;1.10;;;;;;;32.96;32.20;95985.50;5100624;28;20020;-63
2022/07/03 10:13:02;;;;;;;2.33;1.17;;;;;;;33.10;33.03;95984.88;5092447;28;20036;-63
2022/07/03 10:15:30;;;;;;;1.38;1.08;;;;;;;33.35;32.31;95981.22;5091260;28;20081;-63
2022/07/03 10:17:58;;;;;;;1.10;1.00;;;;;;;33.71;32.21;95980.19;5091223;28;20032;-62
2022/07/03 10:20:27;;;;;;;1.58;1.38;;;;;;;34.09;31.18;95976.91;5108705;28;20020;-63
2022/07/03 10:22:53;;;;;;;4.72;1.55;;;;;;;34.23;30.94;95980.63;5094986;28;20031;-63
2022/07/03 10:25:19;;;;;;;1.83;1.20;;;;;;;33.31;31.74;95979.31;5093870;28;20032;-63
2022/07/03 10:27:48;;;;;;;2.38;1.10;;;;;;;33.21;32.71;95981.03;5098786;28;20020;-63
2022/07/03 10:30:19;;;;;;;2.25;2.03;;;;;;;33.71;31.99;95983.75;5086127;28;20031;-63
2022/07/03 10:32:47;;;;;;;1.92;1.50;;;;;;;33.74;32.42;95981.56;5099947;28;20024;-64
2022/07/03 10:35:20;;;;;;;1.30;1.20;;;;;;;34.34;31.13;95975.88;5097753;28;20032;-62
2022/07/03 10:37:51;;;;;;;1.30;1.15;;;;;;;34.42;31.42;95979.91;5092218;28;20094;-64
2022/07/03 10:46:16;;;;;;;1.55;1.30;;;;;;;34.20;31.80;95967.56;5082408;28;20047;-65
2022/07/03 10:49:11;;;;;;;1.50;1.40;;;;;;;34.19;30.49;95960.47;5093132;28;20045;-64
2022/07/03 10:51:48;;;;;;;1.63;1.20;;;;;;;34.62;30.15;95967.16;5091966;28;20048;-63
2022/07/03 10:54:28;;;;;;;1.48;1.20;;;;;;;34.38;32.19;95967.94;5085632;28;20526;-64
2022/07/03 10:57:02;;;;;;;1.35;1.25;;;;;;;34.46;31.26;95964.56;5089661;28;20048;-63
2022/07/03 10:59:45;;;;;;;1.30;1.30;;;;;;;34.68;28.37;95963.25;5087643;28;20064;-62
2022/07/03 11:02:21;;;;;;;1.42;1.33;;;;;;;35.26;27.55;95959.53;5089449;28;20043;-63
2022/07/03 11:05:01;;;;;;;1.42;1.30;;;;;;;34.77;27.54;95958.75;5085817;28;20040;-65
2022/07/03 11:07:31;;;;;;;1.45;1.35;;;;;;;35.19;27.39;95964.59;5090633;28;20388;-63
2022/07/03 11:10:09;;;;;;;1.55;1.45;;;;;;;35.02;26.77;95965.06;5088446;28;20035;-63
2022/07/03 11:13:06;;;;;;;4.10;1.40;;;;;;;34.54;27.75;95963.16;5086614;28;20032;-63
2022/07/03 11:15:54;;;;;;;1.90;1.80;;;;;;;34.49;27.81;95963.22;5087883;28;20111;-63
2022/07/03 11:18:23;;;;;;;1.23;1.23;;;;;;;34.57;27.52;95957.09;5086623;28;20020;-62
2022/07/03 11:20:51;;;;;;;1.10;1.10;;;;;;;34.61;26.58;95957.34;5087866;28;20074;-63
2022/07/03 11:23:29;;;;;;;1.30;1.20;;;;;;;34.27;27.14;95964.50;5090873;28;20042;-65
2022/07/03 11:26:18;;;;;;;5.53;1.48;;;;;;;33.77;28.06;95948.22;5090882;28;20104;-63
2022/07/03 11:28:44;;;;;;;1.58;1.20;;;;;;;33.87;28.59;95942.66;5091132;28;20028;-66
2022/07/03 11:31:16;;;;;;;1.77;0.87;;;;;;;34.15;27.57;95945.72;5093070;28;20106;-64
2022/07/03 11:33:53;;;;;;;1.27;1.17;;;;;;;34.50;26.97;95942.97;5088469;28;20274;-67
2022/07/03 11:36:20;;;;;;;1.20;1.20;;;;;;;34.37;26.90;95937.06;5090800;28;20052;-65
2022/07/03 11:38:57;;;;;;;2.33;0.93;;;;;;;34.58;25.08;95936.84;5102640;28;20407;-67
2022/07/03 11:41:24;;;;;;;1.60;1.00;;;;;;;34.43;25.79;95937.81;5092652;28;20035;-68
2022/07/03 11:44:03;;;;;;;1.85;1.08;;;;;;;34.85;24.64;95925.34;5088485;28;20028;-68
2022/07/03 11:46:32;;;;;;;0.90;0.90;;;;;;;34.05;25.15;95926.72;5090504;28;20560;-67
2022/07/03 11:49:08;;;;;;;2.30;1.00;;;;;;;34.10;25.43;95929.41;5089042;28;20510;-67
2022/07/03 11:51:35;;;;;;;1.08;1.00;;;;;;;34.14;25.13;95909.41;5088254;28;20126;-67